sensor_id;sensor_type;location;lat;lon;timestamp;temperature;humidity
9998;DHT22;5038;53.064;8.624;2022-08-04T00:00:39;22.50;99.90
9998;DHT22;5038;53.064;8.624;2022-08-04T00:03:15;22.50;99.90
9998;DHT22;5038;53.064;8.624;2022-08-04T00:05:54;22.50;99.90
9998;DHT22;5038;53.064;8.624;2022-08-04T00:08:33;22.40;99.90
9998;DHT22;5038;53.064;8.624;2022-08-04T00:11:06;22.40;99.90
9998;DHT22;5038;53.064;8.624;2022-08-04T00:13:44;22.40;99.90
9998;DHT22;5038;53.064;8.624;2022-08-04T00:16:31;22.30;99.90
9998;DHT22;5038;53.064;8.624;2022-08-04T00:19:09;22.30;99.90
9998;DHT22;5038;53.064;8.624;2022-08-04T00:21:41;22.30;99.90
9998;DHT22;5038;53.064;8.624;2022-08-04T00:24:15;22.30;99.90
9998;DHT22;5038;53.064;8.624;2022-08-04T00:26:44;22.20;99.90
9998;DHT22;5038;53.064;8.624;2022-08-04T00:29:13;22.20;99.90
9998;DHT22;5038;53.064;8.624;2022-08-04T00:31:41;22.20;99.90
9998;DHT22;5038;53.064;8.624;2022-08-04T00:34:24;22.10;99.90
9998;DHT22;5038;53.064;8.624;2022-08-04T00:36:53;22.10;99.90
9998;DHT22;5038;53.064;8.624;2022-08-04T00:39:24;22.10;99.90
9998;DHT22;5038;53.064;8.624;2022-08-04T00:45:10;22.10;99.90
9998;DHT22;5038;53.064;8.624;2022-08-04T00:47:56;22.00;99.90
9998;DHT22;5038;53.064;8.624;2022-08-04T00:50:35;22.00;99.90
9998;DHT22;5038;53.064;8.624;2022-08-04T00:53:17;22.00;99.90
9998;DHT22;5038;53.064;8.624;2022-08-04T00:56:18;21.90;99.90
9998;DHT22;5038;53.064;8.624;2022-08-04T00:59:02;21.90;99.90
9998;DHT22;5038;53.064;8.624;2022-08-04T01:01:59;21.90;99.90
9998;DHT22;5038;53.064;8.624;2022-08-04T01:04:39;21.90;99.90
9998;DHT22;5038;53.064;8.624;2022-08-04T01:07:23;21.80;99.90
9998;DHT22;5038;53.064;8.624;2022-08-04T01:10:01;21.80;99.90
9998;DHT22;5038;53.064;8.624;2022-08-04T01:12:53;21.80;99.90
9998;DHT22;5038;53.064;8.624;2022-08-04T01:15:31;21.70;99.90
9998;DHT22;5038;53.064;8.624;2022-08-04T01:18:29;21.70;99.90
9998;DHT22;5038;53.064;8.624;2022-08-04T01:21:20;21.70;99.90
9998;DHT22;5038;53.064;8.624;2022-08-04T01:24:18;21.70;99.90
9998;DHT22;5038;53.064;8.624;2022-08-04T01:26:54;21.60;99.90
9998;DHT22;5038;53.064;8.624;2022-08-04T01:29:28;21.60;99.90
9998;DHT22;5038;53.064;8.624;2022-08-04T01:32:18;21.60;99.90
9998;DHT22;5038;53.064;8.624;2022-08-04T01:34:55;21.60;99.90
9998;DHT22;5038;53.064;8.624;2022-08-04T01:37:32;21.60;99.90
9998;DHT22;5038;53.064;8.624;2022-08-04T01:40:04;21.50;99.90
9998;DHT22;5038;53.064;8.624;2022-08-04T01:42:34;21.50;99.90
9998;DHT22;5038;53.064;8.624;2022-08-04T01:45:06;21.50;99.90
9998;DHT22;5038;53.064;8.624;2022-08-04T01:47:36;21.50;99.90
9998;DHT22;5038;53.064;8.624;2022-08-04T01:50:06;21.50;99.90
9998;DHT22;5038;53.064;8.624;2022-08-04T01:52:36;21.40;99.90
9998;DHT22;5038;53.064;8.624;2022-08-04T01:55:07;21.50;99.90
9998;DHT22;5038;53.064;8.624;2022-08-04T01:57:40;21.40;99.90
9998;DHT22;5038;53.064;8.624;2022-08-04T02:00:12;21.40;99.90
9998;DHT22;5038;53.064;8.624;2022-08-04T02:02:41;21.40;99.90
9998;DHT22;5038;53.064;8.624;2022-08-04T02:05:14;21.40;99.90
9998;DHT22;5038;53.064;8.624;2022-08-04T02:07:49;21.30;99.90
9998;DHT22;5038;53.064;8.624;2022-08-04T02:10:26;21.30;99.90
9998;DHT22;5038;53.064;8.624;2022-08-04T02:13:11;21.30;99.90
9998;DHT22;5038;53.064;8.624;2022-08-04T02:15:52;21.30;99.90
9998;DHT22;5038;53.064;8.624;2022-08-04T02:18:27;21.30;99.90
9998;DHT22;5038;53.064;8.624;2022-08-04T02:20:59;21.30;99.90
9998;DHT22;5038;53.064;8.624;2022-08-04T02:23:30;21.20;99.90
9998;DHT22;5038;53.064;8.624;2022-08-04T02:26:03;21.20;99.90
9998;DHT22;5038;53.064;8.624;2022-08-04T02:28:38;21.20;99.90
9998;DHT22;5038;53.064;8.624;2022-08-04T02:31:15;21.20;99.90
9998;DHT22;5038;53.064;8.624;2022-08-04T02:33:50;21.20;99.90
9998;DHT22;5038;53.064;8.624;2022-08-04T02:36:23;21.20;99.90
9998;DHT22;5038;53.064;8.624;2022-08-04T02:38:55;21.10;99.90
9998;DHT22;5038;53.064;8.624;2022-08-04T02:41:27;21.10;99.90
9998;DHT22;5038;53.064;8.624;2022-08-04T02:43:58;21.10;99.90
9998;DHT22;5038;53.064;8.624;2022-08-04T02:46:30;21.10;99.90
9998;DHT22;5038;53.064;8.624;2022-08-04T02:49:01;21.10;99.90
9998;DHT22;5038;53.064;8.624;2022-08-04T02:51:33;21.00;99.90
9998;DHT22;5038;53.064;8.624;2022-08-04T02:54:03;21.10;99.90
9998;DHT22;5038;53.064;8.624;2022-08-04T02:56:34;21.00;99.90
9998;DHT22;5038;53.064;8.624;2022-08-04T02:59:05;21.00;99.90
9998;DHT22;5038;53.064;8.624;2022-08-04T03:01:35;21.00;99.90
9998;DHT22;5038;53.064;8.624;2022-08-04T03:04:42;21.00;99.90
9998;DHT22;5038;53.064;8.624;2022-08-04T03:07:44;21.00;99.90
9998;DHT22;5038;53.064;8.624;2022-08-04T03:20:12;20.90;99.90
9998;DHT22;5038;53.064;8.624;2022-08-04T03:23:16;20.90;99.90
9998;DHT22;5038;53.064;8.624;2022-08-04T03:26:15;20.90;99.90
9998;DHT22;5038;53.064;8.624;2022-08-04T03:29:25;20.90;99.90
9998;DHT22;5038;53.064;8.624;2022-08-04T03:32:22;20.80;99.90
9998;DHT22;5038;53.064;8.624;2022-08-04T03:35:07;20.80;99.90
9998;DHT22;5038;53.064;8.624;2022-08-04T03:38:08;20.80;99.90
9998;DHT22;5038;53.064;8.624;2022-08-04T03:41:02;20.80;99.90
9998;DHT22;5038;53.064;8.624;2022-08-04T03:44:05;20.80;99.90
9998;DHT22;5038;53.064;8.624;2022-08-04T03:46:51;20.80;99.90
9998;DHT22;5038;53.064;8.624;2022-08-04T03:49:50;20.80;99.90
9998;DHT22;5038;53.064;8.624;2022-08-04T03:58:52;20.70;99.90
9998;DHT22;5038;53.064;8.624;2022-08-04T04:01:49;20.70;99.90
9998;DHT22;5038;53.064;8.624;2022-08-04T04:05:02;20.70;99.90
9998;DHT22;5038;53.064;8.624;2022-08-04T04:11:18;20.70;99.90
9998;DHT22;5038;53.064;8.624;2022-08-04T04:14:33;20.70;99.90
9998;DHT22;5038;53.064;8.624;2022-08-04T04:17:21;20.70;99.90
9998;DHT22;5038;53.064;8.624;2022-08-04T04:20:30;20.70;99.90
9998;DHT22;5038;53.064;8.624;2022-08-04T04:23:10;20.70;99.90
9998;DHT22;5038;53.064;8.624;2022-08-04T04:25:54;20.70;99.90
9998;DHT22;5038;53.064;8.624;2022-08-04T04:28:37;20.70;99.90
9998;DHT22;5038;53.064;8.624;2022-08-04T04:31:33;20.70;99.90
9998;DHT22;5038;53.064;8.624;2022-08-04T04:34:11;20.80;99.90
9998;DHT22;5038;53.064;8.624;2022-08-04T04:36:51;20.80;99.90
9998;DHT22;5038;53.064;8.624;2022-08-04T04:39:31;20.80;99.90
9998;DHT22;5038;53.064;8.624;2022-08-04T04:42:12;20.90;99.90
9998;DHT22;5038;53.064;8.624;2022-08-04T04:45:04;20.90;99.90
9998;DHT22;5038;53.064;8.624;2022-08-04T04:47:41;21.00;99.90
9998;DHT22;5038;53.064;8.624;2022-08-04T04:50:46;21.00;99.90
9998;DHT22;5038;53.064;8.624;2022-08-04T04:53:26;21.00;99.90
9998;DHT22;5038;53.064;8.624;2022-08-04T04:56:02;21.10;99.90
9998;DHT22;5038;53.064;8.624;2022-08-04T04:58:33;21.10;99.90
9998;DHT22;5038;53.064;8.624;2022-08-04T05:01:25;21.10;99.90
9998;DHT22;5038;53.064;8.624;2022-08-04T05:04:10;21.20;99.90
9998;DHT22;5038;53.064;8.624;2022-08-04T05:06:54;21.20;99.90
9998;DHT22;5038;53.064;8.624;2022-08-04T05:09:41;21.30;99.90
9998;DHT22;5038;53.064;8.624;2022-08-04T05:12:24;21.30;99.90
9998;DHT22;5038;53.064;8.624;2022-08-04T05:15:14;21.40;99.90
9998;DHT22;5038;53.064;8.624;2022-08-04T05:17:49;21.40;99.90
9998;DHT22;5038;53.064;8.624;2022-08-04T05:20:21;21.50;99.90
9998;DHT22;5038;53.064;8.624;2022-08-04T05:22:54;21.50;99.90
9998;DHT22;5038;53.064;8.624;2022-08-04T05:25:31;21.60;99.90
9998;DHT22;5038;53.064;8.624;2022-08-04T05:28:04;21.60;99.90
9998;DHT22;5038;53.064;8.624;2022-08-04T05:30:37;21.70;99.90
9998;DHT22;5038;53.064;8.624;2022-08-04T05:33:15;21.70;99.90
9998;DHT22;5038;53.064;8.624;2022-08-04T05:35:48;21.80;99.90
9998;DHT22;5038;53.064;8.624;2022-08-04T05:38:40;21.80;99.90
9998;DHT22;5038;53.064;8.624;2022-08-04T05:41:12;21.90;99.90
9998;DHT22;5038;53.064;8.624;2022-08-04T05:43:42;21.90;99.90
9998;DHT22;5038;53.064;8.624;2022-08-04T05:46:11;22.00;99.90
9998;DHT22;5038;53.064;8.624;2022-08-04T05:48:40;22.00;99.90
9998;DHT22;5038;53.064;8.624;2022-08-04T05:51:10;22.10;99.90
9998;DHT22;5038;53.064;8.624;2022-08-04T05:53:39;22.20;99.90
9998;DHT22;5038;53.064;8.624;2022-08-04T05:56:13;22.20;99.90
9998;DHT22;5038;53.064;8.624;2022-08-04T05:58:43;22.30;99.90
9998;DHT22;5038;53.064;8.624;2022-08-04T06:01:13;22.30;99.90
9998;DHT22;5038;53.064;8.624;2022-08-04T06:03:44;22.40;99.90
9998;DHT22;5038;53.064;8.624;2022-08-04T06:06:14;22.50;99.90
9998;DHT22;5038;53.064;8.624;2022-08-04T06:08:44;22.50;99.90
9998;DHT22;5038;53.064;8.624;2022-08-04T06:11:14;22.60;99.90
9998;DHT22;5038;53.064;8.624;2022-08-04T06:13:49;22.80;99.90
9998;DHT22;5038;53.064;8.624;2022-08-04T06:16:21;23.00;99.90
9998;DHT22;5038;53.064;8.624;2022-08-04T06:18:59;23.20;99.90
9998;DHT22;5038;53.064;8.624;2022-08-04T06:21:49;23.40;99.90
9998;DHT22;5038;53.064;8.624;2022-08-04T06:24:22;23.70;99.90
9998;DHT22;5038;53.064;8.624;2022-08-04T06:26:54;23.90;99.90
9998;DHT22;5038;53.064;8.624;2022-08-04T06:29:24;24.10;99.90
9998;DHT22;5038;53.064;8.624;2022-08-04T06:31:59;24.20;99.90
9998;DHT22;5038;53.064;8.624;2022-08-04T06:34:59;24.40;99.90
9998;DHT22;5038;53.064;8.624;2022-08-04T06:37:28;24.50;99.90
9998;DHT22;5038;53.064;8.624;2022-08-04T06:40:10;24.60;99.90
9998;DHT22;5038;53.064;8.624;2022-08-04T06:43:00;24.80;99.90
9998;DHT22;5038;53.064;8.624;2022-08-04T06:45:30;24.90;99.90
9998;DHT22;5038;53.064;8.624;2022-08-04T06:48:01;25.00;99.90
9998;DHT22;5038;53.064;8.624;2022-08-04T06:50:29;25.10;99.90
9998;DHT22;5038;53.064;8.624;2022-08-04T06:53:18;25.30;99.90
9998;DHT22;5038;53.064;8.624;2022-08-04T06:55:47;25.40;99.90
9998;DHT22;5038;53.064;8.624;2022-08-04T06:58:19;25.50;99.90
9998;DHT22;5038;53.064;8.624;2022-08-04T07:00:48;25.70;99.90
9998;DHT22;5038;53.064;8.624;2022-08-04T07:03:18;25.80;99.90
9998;DHT22;5038;53.064;8.624;2022-08-04T07:05:48;25.90;99.90
9998;DHT22;5038;53.064;8.624;2022-08-04T07:08:16;26.10;99.90
9998;DHT22;5038;53.064;8.624;2022-08-04T07:10:46;26.30;99.90
9998;DHT22;5038;53.064;8.624;2022-08-04T07:13:16;26.40;99.90
9998;DHT22;5038;53.064;8.624;2022-08-04T07:15:46;26.60;99.90
9998;DHT22;5038;53.064;8.624;2022-08-04T07:18:15;26.70;99.90
9998;DHT22;5038;53.064;8.624;2022-08-04T07:20:44;26.90;99.90
9998;DHT22;5038;53.064;8.624;2022-08-04T07:23:14;27.10;99.90
9998;DHT22;5038;53.064;8.624;2022-08-04T07:25:50;27.20;99.90
9998;DHT22;5038;53.064;8.624;2022-08-04T07:28:40;27.30;99.90
9998;DHT22;5038;53.064;8.624;2022-08-04T07:31:10;27.40;99.90
9998;DHT22;5038;53.064;8.624;2022-08-04T07:34:01;27.60;99.90
9998;DHT22;5038;53.064;8.624;2022-08-04T07:36:48;27.70;99.90
9998;DHT22;5038;53.064;8.624;2022-08-04T07:39:22;27.80;99.90
9998;DHT22;5038;53.064;8.624;2022-08-04T07:41:57;27.80;99.90
9998;DHT22;5038;53.064;8.624;2022-08-04T07:44:29;27.90;99.90
9998;DHT22;5038;53.064;8.624;2022-08-04T07:46:59;27.90;99.90
9998;DHT22;5038;53.064;8.624;2022-08-04T07:49:28;28.00;99.90
9998;DHT22;5038;53.064;8.624;2022-08-04T07:52:16;28.00;99.90
9998;DHT22;5038;53.064;8.624;2022-08-04T07:54:46;28.20;99.90
9998;DHT22;5038;53.064;8.624;2022-08-04T07:57:15;28.40;99.90
9998;DHT22;5038;53.064;8.624;2022-08-04T08:00:07;28.60;99.90
9998;DHT22;5038;53.064;8.624;2022-08-04T08:02:39;28.70;99.90
9998;DHT22;5038;53.064;8.624;2022-08-04T08:05:09;28.80;99.90
9998;DHT22;5038;53.064;8.624;2022-08-04T08:07:40;28.80;99.90
9998;DHT22;5038;53.064;8.624;2022-08-04T08:10:20;28.90;99.90
9998;DHT22;5038;53.064;8.624;2022-08-04T08:12:49;29.00;99.90
9998;DHT22;5038;53.064;8.624;2022-08-04T08:15:20;29.10;99.90
9998;DHT22;5038;53.064;8.624;2022-08-04T08:17:48;29.20;99.90
9998;DHT22;5038;53.064;8.624;2022-08-04T08:20:28;29.40;99.90
9998;DHT22;5038;53.064;8.624;2022-08-04T08:22:59;29.50;99.90
9998;DHT22;5038;53.064;8.624;2022-08-04T08:25:29;29.70;99.90
9998;DHT22;5038;53.064;8.624;2022-08-04T08:27:58;29.90;99.90
9998;DHT22;5038;53.064;8.624;2022-08-04T08:30:31;30.00;99.90
9998;DHT22;5038;53.064;8.624;2022-08-04T08:33:02;30.20;99.90
9998;DHT22;5038;53.064;8.624;2022-08-04T08:35:37;30.30;99.90
9998;DHT22;5038;53.064;8.624;2022-08-04T08:38:27;30.40;99.90
9998;DHT22;5038;53.064;8.624;2022-08-04T08:41:15;30.50;99.90
9998;DHT22;5038;53.064;8.624;2022-08-04T08:47:07;30.70;99.90
9998;DHT22;5038;53.064;8.624;2022-08-04T08:49:53;30.80;99.90
9998;DHT22;5038;53.064;8.624;2022-08-04T08:52:43;30.90;99.90
9998;DHT22;5038;53.064;8.624;2022-08-04T08:55:47;31.00;99.90
9998;DHT22;5038;53.064;8.624;2022-08-04T08:58:33;31.10;99.80
9998;DHT22;5038;53.064;8.624;2022-08-04T09:01:09;31.30;99.40
9998;DHT22;5038;53.064;8.624;2022-08-04T09:04:17;31.40;99.10
9998;DHT22;5038;53.064;8.624;2022-08-04T09:07:18;31.50;98.80
9998;DHT22;5038;53.064;8.624;2022-08-04T09:09:59;31.60;98.60
9998;DHT22;5038;53.064;8.624;2022-08-04T09:12:38;31.80;98.40
9998;DHT22;5038;53.064;8.624;2022-08-04T09:15:13;31.90;98.50
9998;DHT22;5038;53.064;8.624;2022-08-04T09:17:46;32.00;98.00
9998;DHT22;5038;53.064;8.624;2022-08-04T09:20:24;32.10;97.80
9998;DHT22;5038;53.064;8.624;2022-08-04T09:23:06;32.20;97.40
9998;DHT22;5038;53.064;8.624;2022-08-04T09:25:41;32.30;97.30
9998;DHT22;5038;53.064;8.624;2022-08-04T09:28:17;32.40;97.20
9998;DHT22;5038;53.064;8.624;2022-08-04T09:31:10;32.50;97.10
9998;DHT22;5038;53.064;8.624;2022-08-04T09:33:46;32.60;97.00
9998;DHT22;5038;53.064;8.624;2022-08-04T09:36:27;32.70;96.70
9998;DHT22;5038;53.064;8.624;2022-08-04T09:39:05;32.90;96.40
9998;DHT22;5038;53.064;8.624;2022-08-04T09:41:42;33.00;96.00
9998;DHT22;5038;53.064;8.624;2022-08-04T09:44:25;33.10;95.50
9998;DHT22;5038;53.064;8.624;2022-08-04T09:47:19;33.10;95.00
9998;DHT22;5038;53.064;8.624;2022-08-04T09:49:54;33.20;94.80
9998;DHT22;5038;53.064;8.624;2022-08-04T09:52:31;33.30;94.50
9998;DHT22;5038;53.064;8.624;2022-08-04T09:55:13;33.30;94.30
9998;DHT22;5038;53.064;8.624;2022-08-04T09:58:02;33.40;93.80
9998;DHT22;5038;53.064;8.624;2022-08-04T10:00:35;33.40;93.40
9998;DHT22;5038;53.064;8.624;2022-08-04T10:03:09;33.50;93.30
9998;DHT22;5038;53.064;8.624;2022-08-04T10:05:54;33.50;93.10
9998;DHT22;5038;53.064;8.624;2022-08-04T10:08:40;33.50;92.90
9998;DHT22;5038;53.064;8.624;2022-08-04T10:11:13;33.60;92.50
9998;DHT22;5038;53.064;8.624;2022-08-04T10:13:50;33.60;92.10
9998;DHT22;5038;53.064;8.624;2022-08-04T10:16:34;33.70;91.60
9998;DHT22;5038;53.064;8.624;2022-08-04T10:19:14;33.70;91.20
9998;DHT22;5038;53.064;8.624;2022-08-04T10:22:00;33.70;91.00
9998;DHT22;5038;53.064;8.624;2022-08-04T10:25:02;33.70;90.70
9998;DHT22;5038;53.064;8.624;2022-08-04T10:27:56;33.80;90.70
9998;DHT22;5038;53.064;8.624;2022-08-04T10:30:25;33.80;90.60
9998;DHT22;5038;53.064;8.624;2022-08-04T10:33:01;33.80;90.40
9998;DHT22;5038;53.064;8.624;2022-08-04T10:35:34;33.90;90.00
9998;DHT22;5038;53.064;8.624;2022-08-04T10:38:10;34.00;89.10
9998;DHT22;5038;53.064;8.624;2022-08-04T10:40:46;34.00;88.70
9998;DHT22;5038;53.064;8.624;2022-08-04T10:43:21;34.00;88.20
9998;DHT22;5038;53.064;8.624;2022-08-04T10:45:56;34.00;87.10
9998;DHT22;5038;53.064;8.624;2022-08-04T10:48:39;34.00;86.90
9998;DHT22;5038;53.064;8.624;2022-08-04T10:51:20;34.10;86.30
9998;DHT22;5038;53.064;8.624;2022-08-04T10:53:56;34.10;85.90
9998;DHT22;5038;53.064;8.624;2022-08-04T10:56:31;34.10;85.50
9998;DHT22;5038;53.064;8.624;2022-08-04T10:59:06;34.20;84.90
9998;DHT22;5038;53.064;8.624;2022-08-04T11:01:38;34.20;84.50
9998;DHT22;5038;53.064;8.624;2022-08-04T11:04:33;34.20;84.40
9998;DHT22;5038;53.064;8.624;2022-08-04T11:07:03;34.20;83.80
9998;DHT22;5038;53.064;8.624;2022-08-04T11:09:33;34.30;83.80
9998;DHT22;5038;53.064;8.624;2022-08-04T11:12:08;34.30;83.50
9998;DHT22;5038;53.064;8.624;2022-08-04T11:14:43;34.30;83.30
9998;DHT22;5038;53.064;8.624;2022-08-04T11:17:24;34.30;83.10
9998;DHT22;5038;53.064;8.624;2022-08-04T11:20:00;34.30;83.40
9998;DHT22;5038;53.064;8.624;2022-08-04T11:22:57;34.40;83.20
9998;DHT22;5038;53.064;8.624;2022-08-04T11:25:37;34.50;83.40
9998;DHT22;5038;53.064;8.624;2022-08-04T11:28:13;34.50;82.80
9998;DHT22;5038;53.064;8.624;2022-08-04T11:30:51;34.60;81.40
9998;DHT22;5038;53.064;8.624;2022-08-04T11:33:34;34.60;80.70
9998;DHT22;5038;53.064;8.624;2022-08-04T11:36:09;34.60;80.30
9998;DHT22;5038;53.064;8.624;2022-08-04T11:38:46;34.70;79.30
9998;DHT22;5038;53.064;8.624;2022-08-04T11:41:21;34.70;78.70
9998;DHT22;5038;53.064;8.624;2022-08-04T11:43:53;34.60;78.40
9998;DHT22;5038;53.064;8.624;2022-08-04T11:46:36;34.60;78.30
9998;DHT22;5038;53.064;8.624;2022-08-04T11:49:09;34.60;77.50
9998;DHT22;5038;53.064;8.624;2022-08-04T11:51:38;34.70;78.20
9998;DHT22;5038;53.064;8.624;2022-08-04T11:54:10;34.70;76.70
9998;DHT22;5038;53.064;8.624;2022-08-04T11:56:39;34.70;76.40
9998;DHT22;5038;53.064;8.624;2022-08-04T11:59:09;34.80;76.50
9998;DHT22;5038;53.064;8.624;2022-08-04T12:01:46;34.80;76.00
9998;DHT22;5038;53.064;8.624;2022-08-04T12:04:23;34.90;75.20
9998;DHT22;5038;53.064;8.624;2022-08-04T12:06:55;34.90;74.60
9998;DHT22;5038;53.064;8.624;2022-08-04T12:09:51;34.90;74.30
9998;DHT22;5038;53.064;8.624;2022-08-04T12:12:27;34.90;74.40
9998;DHT22;5038;53.064;8.624;2022-08-04T12:15:07;35.00;74.50
9998;DHT22;5038;53.064;8.624;2022-08-04T12:17:45;34.90;73.80
9998;DHT22;5038;53.064;8.624;2022-08-04T12:20:26;34.90;74.20
9998;DHT22;5038;53.064;8.624;2022-08-04T12:23:06;34.80;74.00
9998;DHT22;5038;53.064;8.624;2022-08-04T12:25:45;34.90;73.70
9998;DHT22;5038;53.064;8.624;2022-08-04T12:28:21;34.90;73.10
9998;DHT22;5038;53.064;8.624;2022-08-04T12:30:56;35.00;73.10
9998;DHT22;5038;53.064;8.624;2022-08-04T12:33:38;35.00;73.10
9998;DHT22;5038;53.064;8.624;2022-08-04T12:36:32;35.00;72.50
9998;DHT22;5038;53.064;8.624;2022-08-04T12:39:08;35.10;72.60
9998;DHT22;5038;53.064;8.624;2022-08-04T12:41:39;35.10;72.30
9998;DHT22;5038;53.064;8.624;2022-08-04T12:44:12;35.20;72.10
9998;DHT22;5038;53.064;8.624;2022-08-04T12:47:04;35.20;71.30
9998;DHT22;5038;53.064;8.624;2022-08-04T12:49:56;35.20;70.50
9998;DHT22;5038;53.064;8.624;2022-08-04T12:52:29;35.20;69.20
9998;DHT22;5038;53.064;8.624;2022-08-04T12:55:19;35.20;68.00
9998;DHT22;5038;53.064;8.624;2022-08-04T12:57:50;35.20;67.40
9998;DHT22;5038;53.064;8.624;2022-08-04T13:00:24;35.30;66.90
9998;DHT22;5038;53.064;8.624;2022-08-04T13:03:05;35.30;67.00
9998;DHT22;5038;53.064;8.624;2022-08-04T13:05:37;35.30;67.10
9998;DHT22;5038;53.064;8.624;2022-08-04T13:08:08;35.30;66.90
9998;DHT22;5038;53.064;8.624;2022-08-04T13:10:39;35.40;66.70
9998;DHT22;5038;53.064;8.624;2022-08-04T13:13:14;35.40;66.60
9998;DHT22;5038;53.064;8.624;2022-08-04T13:15:57;35.40;67.00
9998;DHT22;5038;53.064;8.624;2022-08-04T13:18:28;35.50;68.00
9998;DHT22;5038;53.064;8.624;2022-08-04T13:21:43;35.40;69.40
9998;DHT22;5038;53.064;8.624;2022-08-04T13:25:14;35.50;69.50
9998;DHT22;5038;53.064;8.624;2022-08-04T13:28:45;35.40;70.40
9998;DHT22;5038;53.064;8.624;2022-08-04T13:32:43;35.40;71.90
9998;DHT22;5038;53.064;8.624;2022-08-04T13:40:26;35.20;76.20
9998;DHT22;5038;53.064;8.624;2022-08-04T13:43:49;34.90;76.90
9998;DHT22;5038;53.064;8.624;2022-08-04T13:47:34;34.80;78.60
9998;DHT22;5038;53.064;8.624;2022-08-04T13:50:17;34.60;79.70
9998;DHT22;5038;53.064;8.624;2022-08-04T13:53:07;34.40;80.60
9998;DHT22;5038;53.064;8.624;2022-08-04T13:55:40;34.20;81.40
9998;DHT22;5038;53.064;8.624;2022-08-04T13:58:20;34.00;82.10
9998;DHT22;5038;53.064;8.624;2022-08-04T14:00:57;33.90;82.80
9998;DHT22;5038;53.064;8.624;2022-08-04T14:11:39;33.30;84.30
9998;DHT22;5038;53.064;8.624;2022-08-04T14:14:29;33.10;84.70
9998;DHT22;5038;53.064;8.624;2022-08-04T14:17:02;32.90;84.70
9998;DHT22;5038;53.064;8.624;2022-08-04T14:19:52;32.70;84.80
9998;DHT22;5038;53.064;8.624;2022-08-04T14:22:34;32.10;86.60
9998;DHT22;5038;53.064;8.624;2022-08-04T14:25:06;31.20;89.00
9998;DHT22;5038;53.064;8.624;2022-08-04T14:27:45;30.20;90.00
9998;DHT22;5038;53.064;8.624;2022-08-04T14:30:25;29.20;91.40
9998;DHT22;5038;53.064;8.624;2022-08-04T14:32:55;28.30;92.10
9998;DHT22;5038;53.064;8.624;2022-08-04T14:35:23;27.60;92.70
9998;DHT22;5038;53.064;8.624;2022-08-04T14:38:12;27.10;93.30
9998;DHT22;5038;53.064;8.624;2022-08-04T14:40:41;26.80;93.90
9998;DHT22;5038;53.064;8.624;2022-08-04T14:43:16;26.60;94.30
9998;DHT22;5038;53.064;8.624;2022-08-04T14:45:44;26.50;94.80
9998;DHT22;5038;53.064;8.624;2022-08-04T14:48:21;26.50;95.20
9998;DHT22;5038;53.064;8.624;2022-08-04T14:50:50;26.50;95.60
9998;DHT22;5038;53.064;8.624;2022-08-04T14:53:23;26.60;95.90
9998;DHT22;5038;53.064;8.624;2022-08-04T14:55:56;26.60;96.30
9998;DHT22;5038;53.064;8.624;2022-08-04T14:58:28;26.60;96.50
9998;DHT22;5038;53.064;8.624;2022-08-04T15:01:05;26.70;96.80
9998;DHT22;5038;53.064;8.624;2022-08-04T15:03:39;26.70;97.00
9998;DHT22;5038;53.064;8.624;2022-08-04T15:06:16;26.70;97.20
9998;DHT22;5038;53.064;8.624;2022-08-04T15:08:49;26.70;97.40
9998;DHT22;5038;53.064;8.624;2022-08-04T15:11:18;26.60;97.60
9998;DHT22;5038;53.064;8.624;2022-08-04T15:13:51;26.60;97.90
9998;DHT22;5038;53.064;8.624;2022-08-04T15:16:20;26.60;98.20
9998;DHT22;5038;53.064;8.624;2022-08-04T15:18:49;26.50;98.40
9998;DHT22;5038;53.064;8.624;2022-08-04T15:21:21;26.50;98.70
9998;DHT22;5038;53.064;8.624;2022-08-04T15:23:50;26.40;99.10
9998;DHT22;5038;53.064;8.624;2022-08-04T15:26:24;26.40;99.40
9998;DHT22;5038;53.064;8.624;2022-08-04T15:29:01;26.40;99.70
9998;DHT22;5038;53.064;8.624;2022-08-04T15:31:37;26.40;99.90
9998;DHT22;5038;53.064;8.624;2022-08-04T15:34:27;26.40;99.90
9998;DHT22;5038;53.064;8.624;2022-08-04T15:36:56;26.40;99.90
9998;DHT22;5038;53.064;8.624;2022-08-04T15:39:33;26.40;99.90
9998;DHT22;5038;53.064;8.624;2022-08-04T15:42:13;26.40;99.90
9998;DHT22;5038;53.064;8.624;2022-08-04T15:45:17;26.40;99.90
9998;DHT22;5038;53.064;8.624;2022-08-04T15:51:10;26.40;99.90
9998;DHT22;5038;53.064;8.624;2022-08-04T15:56:50;26.40;99.90
9998;DHT22;5038;53.064;8.624;2022-08-04T15:59:56;26.40;99.90
9998;DHT22;5038;53.064;8.624;2022-08-04T16:02:44;26.30;99.90
9998;DHT22;5038;53.064;8.624;2022-08-04T16:05:32;26.30;99.90
9998;DHT22;5038;53.064;8.624;2022-08-04T16:08:14;26.30;99.90
9998;DHT22;5038;53.064;8.624;2022-08-04T16:10:45;26.40;99.90
9998;DHT22;5038;53.064;8.624;2022-08-04T16:13:14;26.30;99.90
9998;DHT22;5038;53.064;8.624;2022-08-04T16:15:48;26.30;99.90
9998;DHT22;5038;53.064;8.624;2022-08-04T16:18:36;26.30;99.90
9998;DHT22;5038;53.064;8.624;2022-08-04T16:21:17;26.20;99.90
9998;DHT22;5038;53.064;8.624;2022-08-04T16:24:05;26.20;99.90
9998;DHT22;5038;53.064;8.624;2022-08-04T16:26:46;26.20;99.90
9998;DHT22;5038;53.064;8.624;2022-08-04T16:29:39;26.10;99.90
9998;DHT22;5038;53.064;8.624;2022-08-04T16:32:21;26.20;99.90
9998;DHT22;5038;53.064;8.624;2022-08-04T16:34:55;26.30;99.90
9998;DHT22;5038;53.064;8.624;2022-08-04T16:37:31;26.30;99.90
9998;DHT22;5038;53.064;8.624;2022-08-04T16:40:25;26.40;99.90
9998;DHT22;5038;53.064;8.624;2022-08-04T16:43:04;26.50;99.90
9998;DHT22;5038;53.064;8.624;2022-08-04T16:45:48;26.60;99.90
9998;DHT22;5038;53.064;8.624;2022-08-04T16:48:17;26.50;99.90
9998;DHT22;5038;53.064;8.624;2022-08-04T16:50:56;26.50;99.90
9998;DHT22;5038;53.064;8.624;2022-08-04T16:53:36;26.40;99.90
9998;DHT22;5038;53.064;8.624;2022-08-04T16:56:29;26.40;99.90
9998;DHT22;5038;53.064;8.624;2022-08-04T16:59:04;26.30;99.90
9998;DHT22;5038;53.064;8.624;2022-08-04T17:01:33;26.20;99.90
9998;DHT22;5038;53.064;8.624;2022-08-04T17:04:03;26.20;99.90
9998;DHT22;5038;53.064;8.624;2022-08-04T17:06:37;26.10;99.90
9998;DHT22;5038;53.064;8.624;2022-08-04T17:09:10;26.10;99.90
9998;DHT22;5038;53.064;8.624;2022-08-04T17:11:40;26.10;99.90
9998;DHT22;5038;53.064;8.624;2022-08-04T17:14:09;26.10;99.90
9998;DHT22;5038;53.064;8.624;2022-08-04T17:16:38;26.10;99.90
9998;DHT22;5038;53.064;8.624;2022-08-04T17:19:08;26.10;99.90
9998;DHT22;5038;53.064;8.624;2022-08-04T17:21:56;26.10;99.90
9998;DHT22;5038;53.064;8.624;2022-08-04T17:24:32;26.10;99.90
9998;DHT22;5038;53.064;8.624;2022-08-04T17:27:01;26.10;99.90
9998;DHT22;5038;53.064;8.624;2022-08-04T17:29:50;26.10;99.90
9998;DHT22;5038;53.064;8.624;2022-08-04T17:32:19;26.20;99.90
9998;DHT22;5038;53.064;8.624;2022-08-04T17:34:50;26.30;99.90
9998;DHT22;5038;53.064;8.624;2022-08-04T17:37:22;26.60;99.90
9998;DHT22;5038;53.064;8.624;2022-08-04T17:40:12;27.00;99.90
9998;DHT22;5038;53.064;8.624;2022-08-04T17:43:00;27.20;99.90
9998;DHT22;5038;53.064;8.624;2022-08-04T17:46:13;27.20;99.90
9998;DHT22;5038;53.064;8.624;2022-08-04T17:49:03;27.20;99.90
9998;DHT22;5038;53.064;8.624;2022-08-04T17:51:37;27.10;99.90
9998;DHT22;5038;53.064;8.624;2022-08-04T17:54:32;26.90;99.90
9998;DHT22;5038;53.064;8.624;2022-08-04T17:57:13;26.80;99.90
9998;DHT22;5038;53.064;8.624;2022-08-04T17:59:42;26.80;99.90
9998;DHT22;5038;53.064;8.624;2022-08-04T18:02:39;26.80;99.90
9998;DHT22;5038;53.064;8.624;2022-08-04T18:05:07;27.00;99.90
9998;DHT22;5038;53.064;8.624;2022-08-04T18:07:41;27.00;99.90